This is the latest recevied weather packets stored in our database for station/object KD2SIG. If no packets are shown the sender has not sent any weather packets the latest 10 day(s).
| Time | Temp. | Humidity | Pressure | Rain* | Wind** | Luminosity | Snow |
|---|---|---|---|---|---|---|---|
| 1788554659 | 22.78° C | 78% | 1013.5 hPa | 0 mm | - | 103 W/m² | - |
| 1788554355 | 22.78° C | 77% | 1013.5 hPa | 0 mm | - | 136 W/m² | - |
| 1788554052 | 22.78° C | 77% | 1013.3 hPa | 0 mm | - | 150 W/m² | - |
| 1788553747 | 23.89° C | 75% | 1013.4 hPa | 0 mm | - | 157 W/m² | - |
| 1788553443 | 22.78° C | 75% | 1013.6 hPa | 0 mm | - | 240 W/m² | - |
| 1788553139 | 22.78° C | 75% | 1013.4 hPa | 0 mm | - | 163 W/m² | - |
| 1788552833 | 22.78° C | 75% | 1013.4 hPa | 0 mm | - | 65 W/m² | - |
| 1788552529 | 22.78° C | 75% | 1013.6 hPa | 0 mm | - | 95 W/m² | - |
| 1788552227 | 22.78° C | 73% | 1013.5 hPa | 0 mm | - | 102 W/m² | - |
| 1788551922 | 22.78° C | 74% | 1013.7 hPa | 0 mm | - | 97 W/m² | - |
| 1788551620 | 22.78° C | 73% | 1013.6 hPa | 0 mm | - | 90 W/m² | - |
| 1788551325 | 22.78° C | 72% | 1013.9 hPa | 0 mm | - | 126 W/m² | - |
| 1788551015 | 22.78° C | 72% | 1014 hPa | 0 mm | - | 134 W/m² | - |
| 1788550710 | 23.89° C | 72% | 1014 hPa | 0 mm | - | 177 W/m² | - |
| 1788550405 | 23.89° C | 71% | 1013.8 hPa | 0 mm | - | 229 W/m² | - |
| 1788550100 | 24.44° C | 71% | 1014 hPa | 0 mm | - | 514 W/m² | - |
| 1788549796 | 23.89° C | 69% | 1014 hPa | 0 mm | - | 208 W/m² | - |
| 1788549493 | 24.44° C | 68% | 1013.8 hPa | 0 mm | - | 199 W/m² | - |
| 1788549189 | 24.44° C | 68% | 1013.9 hPa | 0 mm | - | 291 W/m² | - |
| 1788548885 | 23.89° C | 70% | 1013.8 hPa | 0 mm | - | 488 W/m² | - |
| 1788548581 | 24.44° C | 69% | 1013.9 hPa | 0 mm | - | 223 W/m² | - |
| 1788548277 | 24.44° C | 71% | 1013.8 hPa | 0 mm | - | 698 W/m² | - |
| 1788547972 | 24.44° C | 69% | 1014 hPa | 0 mm | - | 241 W/m² | - |
| 1788547671 | 23.33° C | 73% | 1014.1 hPa | 0 mm | - | 341 W/m² | - |
| 1788547366 | 23.89° C | 72% | 1014.3 hPa | 0 mm | - | 213 W/m² | - |
* Rain latest hour (hover to see other rain measurements)
** Current wind speed in m/s (hover to see current wind gust speed)